sensor_id;sensor_type;location;lat;lon;timestamp;temperature;humidity
26655;DHT22;14278;50.784;4.630;2023-05-23T00:00:57;16.10;99.90
26655;DHT22;14278;50.784;4.630;2023-05-23T00:03:24;16.20;99.90
26655;DHT22;14278;50.784;4.630;2023-05-23T00:05:50;16.20;99.90
26655;DHT22;14278;50.784;4.630;2023-05-23T00:08:17;15.90;99.90
26655;DHT22;14278;50.784;4.630;2023-05-23T00:10:43;15.80;99.90
26655;DHT22;14278;50.784;4.630;2023-05-23T00:13:09;15.90;99.90
26655;DHT22;14278;50.784;4.630;2023-05-23T00:15:40;16.10;99.90
26655;DHT22;14278;50.784;4.630;2023-05-23T00:18:06;16.20;99.90
26655;DHT22;14278;50.784;4.630;2023-05-23T00:20:40;16.20;99.90
26655;DHT22;14278;50.784;4.630;2023-05-23T00:23:07;16.30;99.90
26655;DHT22;14278;50.784;4.630;2023-05-23T00:25:34;16.40;99.90
26655;DHT22;14278;50.784;4.630;2023-05-23T00:28:04;16.40;99.90
26655;DHT22;14278;50.784;4.630;2023-05-23T00:30:30;16.60;99.90
26655;DHT22;14278;50.784;4.630;2023-05-23T00:32:57;16.60;99.90
26655;DHT22;14278;50.784;4.630;2023-05-23T00:35:25;16.70;99.90
26655;DHT22;14278;50.784;4.630;2023-05-23T00:37:51;16.50;99.90
26655;DHT22;14278;50.784;4.630;2023-05-23T00:40:17;16.60;99.90
26655;DHT22;14278;50.784;4.630;2023-05-23T00:42:43;16.60;99.90
26655;DHT22;14278;50.784;4.630;2023-05-23T00:45:10;16.60;99.90
26655;DHT22;14278;50.784;4.630;2023-05-23T00:47:41;16.50;99.90
26655;DHT22;14278;50.784;4.630;2023-05-23T00:50:12;16.50;99.90
26655;DHT22;14278;50.784;4.630;2023-05-23T00:52:42;16.60;99.90
26655;DHT22;14278;50.784;4.630;2023-05-23T00:55:09;16.80;99.90
26655;DHT22;14278;50.784;4.630;2023-05-23T00:57:35;16.80;99.90
26655;DHT22;14278;50.784;4.630;2023-05-23T01:00:06;16.60;99.90
26655;DHT22;14278;50.784;4.630;2023-05-23T01:02:34;16.90;99.90
26655;DHT22;14278;50.784;4.630;2023-05-23T01:05:02;16.90;99.90
26655;DHT22;14278;50.784;4.630;2023-05-23T01:07:28;16.70;99.90
26655;DHT22;14278;50.784;4.630;2023-05-23T01:09:54;16.50;99.90
26655;DHT22;14278;50.784;4.630;2023-05-23T01:14:56;16.60;99.90
26655;DHT22;14278;50.784;4.630;2023-05-23T01:17:32;16.70;99.90
26655;DHT22;14278;50.784;4.630;2023-05-23T01:20:10;16.70;99.90
26655;DHT22;14278;50.784;4.630;2023-05-23T01:28:20;16.30;99.90
26655;DHT22;14278;50.784;4.630;2023-05-23T01:30:47;16.20;99.90
26655;DHT22;14278;50.784;4.630;2023-05-23T01:33:17;16.30;99.90
26655;DHT22;14278;50.784;4.630;2023-05-23T01:35:45;16.50;99.90
26655;DHT22;14278;50.784;4.630;2023-05-23T01:38:11;16.50;99.90
26655;DHT22;14278;50.784;4.630;2023-05-23T01:40:38;16.30;99.90
26655;DHT22;14278;50.784;4.630;2023-05-23T01:43:03;16.40;99.90
26655;DHT22;14278;50.784;4.630;2023-05-23T01:45:31;16.40;99.90
26655;DHT22;14278;50.784;4.630;2023-05-23T01:47:57;16.60;99.90
26655;DHT22;14278;50.784;4.630;2023-05-23T01:50:23;16.50;99.90
26655;DHT22;14278;50.784;4.630;2023-05-23T01:52:49;16.70;99.90
26655;DHT22;14278;50.784;4.630;2023-05-23T01:55:17;16.60;99.90
26655;DHT22;14278;50.784;4.630;2023-05-23T01:57:49;16.60;99.90
26655;DHT22;14278;50.784;4.630;2023-05-23T02:00:16;16.40;99.90
26655;DHT22;14278;50.784;4.630;2023-05-23T02:02:42;16.40;99.90
26655;DHT22;14278;50.784;4.630;2023-05-23T02:05:09;16.50;99.90
26655;DHT22;14278;50.784;4.630;2023-05-23T02:07:35;16.60;99.90
26655;DHT22;14278;50.784;4.630;2023-05-23T02:10:02;16.50;99.90
26655;DHT22;14278;50.784;4.630;2023-05-23T02:12:28;16.60;99.90
26655;DHT22;14278;50.784;4.630;2023-05-23T02:14:54;16.50;99.90
26655;DHT22;14278;50.784;4.630;2023-05-23T02:17:20;16.60;99.90
26655;DHT22;14278;50.784;4.630;2023-05-23T02:19:47;16.70;99.90
26655;DHT22;14278;50.784;4.630;2023-05-23T02:22:13;16.70;99.90
26655;DHT22;14278;50.784;4.630;2023-05-23T02:24:39;16.90;99.90
26655;DHT22;14278;50.784;4.630;2023-05-23T02:27:05;16.80;99.90
26655;DHT22;14278;50.784;4.630;2023-05-23T02:29:31;17.00;99.90
26655;DHT22;14278;50.784;4.630;2023-05-23T02:31:57;16.70;99.90
26655;DHT22;14278;50.784;4.630;2023-05-23T02:34:23;16.60;99.90
26655;DHT22;14278;50.784;4.630;2023-05-23T02:36:49;16.60;99.90
26655;DHT22;14278;50.784;4.630;2023-05-23T02:39:16;16.30;99.90
26655;DHT22;14278;50.784;4.630;2023-05-23T02:41:41;16.60;99.90
26655;DHT22;14278;50.784;4.630;2023-05-23T02:44:07;16.40;99.90
26655;DHT22;14278;50.784;4.630;2023-05-23T02:46:33;16.40;99.90
26655;DHT22;14278;50.784;4.630;2023-05-23T02:49:01;16.60;99.90
26655;DHT22;14278;50.784;4.630;2023-05-23T02:51:27;16.60;99.90
26655;DHT22;14278;50.784;4.630;2023-05-23T02:53:53;16.70;99.90
26655;DHT22;14278;50.784;4.630;2023-05-23T02:56:19;16.80;99.90
26655;DHT22;14278;50.784;4.630;2023-05-23T02:58:46;16.80;99.90
26655;DHT22;14278;50.784;4.630;2023-05-23T03:01:12;16.80;99.90
26655;DHT22;14278;50.784;4.630;2023-05-23T03:03:38;16.90;99.90
26655;DHT22;14278;50.784;4.630;2023-05-23T03:06:06;16.70;99.90
26655;DHT22;14278;50.784;4.630;2023-05-23T03:08:36;16.60;99.90
26655;DHT22;14278;50.784;4.630;2023-05-23T03:11:02;16.40;99.90
26655;DHT22;14278;50.784;4.630;2023-05-23T03:13:29;16.40;99.90
26655;DHT22;14278;50.784;4.630;2023-05-23T03:15:55;16.50;99.90
26655;DHT22;14278;50.784;4.630;2023-05-23T03:18:20;16.60;99.90
26655;DHT22;14278;50.784;4.630;2023-05-23T03:20:46;16.50;99.90
26655;DHT22;14278;50.784;4.630;2023-05-23T03:23:12;16.40;99.90
26655;DHT22;14278;50.784;4.630;2023-05-23T03:25:38;16.40;99.90
26655;DHT22;14278;50.784;4.630;2023-05-23T03:28:04;16.40;99.90
26655;DHT22;14278;50.784;4.630;2023-05-23T03:30:30;16.60;99.90
26655;DHT22;14278;50.784;4.630;2023-05-23T03:32:55;16.60;99.90
26655;DHT22;14278;50.784;4.630;2023-05-23T03:35:21;16.40;99.90
26655;DHT22;14278;50.784;4.630;2023-05-23T03:37:47;16.30;99.90
26655;DHT22;14278;50.784;4.630;2023-05-23T03:40:13;16.50;99.90
26655;DHT22;14278;50.784;4.630;2023-05-23T03:42:39;16.20;99.90
26655;DHT22;14278;50.784;4.630;2023-05-23T03:45:05;16.00;99.90
26655;DHT22;14278;50.784;4.630;2023-05-23T03:47:31;15.80;99.90
26655;DHT22;14278;50.784;4.630;2023-05-23T03:49:57;15.70;99.90
26655;DHT22;14278;50.784;4.630;2023-05-23T03:52:23;15.80;99.90
26655;DHT22;14278;50.784;4.630;2023-05-23T03:54:49;16.20;99.90
26655;DHT22;14278;50.784;4.630;2023-05-23T03:57:15;16.30;99.90
26655;DHT22;14278;50.784;4.630;2023-05-23T03:59:41;16.50;99.90
26655;DHT22;14278;50.784;4.630;2023-05-23T04:02:07;16.30;99.90
26655;DHT22;14278;50.784;4.630;2023-05-23T04:04:33;16.30;99.90
26655;DHT22;14278;50.784;4.630;2023-05-23T04:06:59;16.30;99.90
26655;DHT22;14278;50.784;4.630;2023-05-23T04:09:26;16.20;99.90
26655;DHT22;14278;50.784;4.630;2023-05-23T04:11:51;15.90;99.90
26655;DHT22;14278;50.784;4.630;2023-05-23T04:14:18;15.60;99.90
26655;DHT22;14278;50.784;4.630;2023-05-23T04:16:46;15.50;99.90
26655;DHT22;14278;50.784;4.630;2023-05-23T04:19:12;15.90;99.90
26655;DHT22;14278;50.784;4.630;2023-05-23T04:21:38;15.80;99.90
26655;DHT22;14278;50.784;4.630;2023-05-23T04:24:04;15.50;99.90
26655;DHT22;14278;50.784;4.630;2023-05-23T04:26:32;15.40;99.90
26655;DHT22;14278;50.784;4.630;2023-05-23T04:29:01;15.30;99.90
26655;DHT22;14278;50.784;4.630;2023-05-23T04:31:26;15.50;99.90
26655;DHT22;14278;50.784;4.630;2023-05-23T04:33:52;15.50;99.90
26655;DHT22;14278;50.784;4.630;2023-05-23T04:36:18;15.60;99.90
26655;DHT22;14278;50.784;4.630;2023-05-23T04:38:44;15.80;99.90
26655;DHT22;14278;50.784;4.630;2023-05-23T04:41:10;15.90;99.90
26655;DHT22;14278;50.784;4.630;2023-05-23T04:43:35;15.90;99.90
26655;DHT22;14278;50.784;4.630;2023-05-23T04:46:10;15.90;99.90
26655;DHT22;14278;50.784;4.630;2023-05-23T04:48:38;15.90;99.90
26655;DHT22;14278;50.784;4.630;2023-05-23T04:51:04;15.90;99.90
26655;DHT22;14278;50.784;4.630;2023-05-23T04:53:33;16.10;99.90
26655;DHT22;14278;50.784;4.630;2023-05-23T04:55:59;16.30;99.90
26655;DHT22;14278;50.784;4.630;2023-05-23T04:58:25;16.30;99.90
26655;DHT22;14278;50.784;4.630;2023-05-23T05:00:51;16.40;99.90
26655;DHT22;14278;50.784;4.630;2023-05-23T05:03:17;16.40;99.90
26655;DHT22;14278;50.784;4.630;2023-05-23T05:05:43;16.50;99.90
26655;DHT22;14278;50.784;4.630;2023-05-23T05:08:09;16.50;99.90
26655;DHT22;14278;50.784;4.630;2023-05-23T05:10:39;16.30;99.90
26655;DHT22;14278;50.784;4.630;2023-05-23T05:13:06;16.50;99.90
26655;DHT22;14278;50.784;4.630;2023-05-23T05:15:32;16.80;99.90
26655;DHT22;14278;50.784;4.630;2023-05-23T05:17:58;16.90;99.90
26655;DHT22;14278;50.784;4.630;2023-05-23T05:20:23;16.80;99.90
26655;DHT22;14278;50.784;4.630;2023-05-23T05:22:56;16.30;99.90
26655;DHT22;14278;50.784;4.630;2023-05-23T05:25:22;16.60;99.90
26655;DHT22;14278;50.784;4.630;2023-05-23T05:27:48;16.60;99.90
26655;DHT22;14278;50.784;4.630;2023-05-23T05:30:15;16.50;99.90
26655;DHT22;14278;50.784;4.630;2023-05-23T05:32:41;16.10;99.90
26655;DHT22;14278;50.784;4.630;2023-05-23T05:35:10;16.00;99.90
26655;DHT22;14278;50.784;4.630;2023-05-23T05:37:38;16.10;99.90
26655;DHT22;14278;50.784;4.630;2023-05-23T05:40:05;16.40;99.90
26655;DHT22;14278;50.784;4.630;2023-05-23T05:42:33;16.50;99.90
26655;DHT22;14278;50.784;4.630;2023-05-23T05:44:59;16.80;99.90
26655;DHT22;14278;50.784;4.630;2023-05-23T05:47:25;16.90;99.90
26655;DHT22;14278;50.784;4.630;2023-05-23T05:49:51;17.00;99.90
26655;DHT22;14278;50.784;4.630;2023-05-23T05:52:17;16.70;99.90
26655;DHT22;14278;50.784;4.630;2023-05-23T05:54:43;16.50;99.90
26655;DHT22;14278;50.784;4.630;2023-05-23T05:57:09;16.60;99.90
26655;DHT22;14278;50.784;4.630;2023-05-23T05:59:34;16.50;99.90
26655;DHT22;14278;50.784;4.630;2023-05-23T06:02:00;16.50;99.90
26655;DHT22;14278;50.784;4.630;2023-05-23T06:04:26;16.80;99.90
26655;DHT22;14278;50.784;4.630;2023-05-23T06:06:52;16.80;99.90
26655;DHT22;14278;50.784;4.630;2023-05-23T06:09:18;16.70;99.90
26655;DHT22;14278;50.784;4.630;2023-05-23T06:11:43;16.40;99.90
26655;DHT22;14278;50.784;4.630;2023-05-23T06:14:09;16.70;99.90
26655;DHT22;14278;50.784;4.630;2023-05-23T06:16:35;16.90;99.90
26655;DHT22;14278;50.784;4.630;2023-05-23T06:19:01;16.90;99.90
26655;DHT22;14278;50.784;4.630;2023-05-23T06:21:27;17.10;99.90
26655;DHT22;14278;50.784;4.630;2023-05-23T06:23:53;17.30;99.90
26655;DHT22;14278;50.784;4.630;2023-05-23T06:26:18;16.80;99.90
26655;DHT22;14278;50.784;4.630;2023-05-23T06:28:44;16.70;99.90
26655;DHT22;14278;50.784;4.630;2023-05-23T06:31:10;16.40;99.90
26655;DHT22;14278;50.784;4.630;2023-05-23T06:33:36;16.50;99.90
26655;DHT22;14278;50.784;4.630;2023-05-23T06:36:02;16.60;99.90
26655;DHT22;14278;50.784;4.630;2023-05-23T06:38:31;16.40;99.90
26655;DHT22;14278;50.784;4.630;2023-05-23T06:41:00;16.10;99.90
26655;DHT22;14278;50.784;4.630;2023-05-23T06:43:26;16.10;99.90
26655;DHT22;14278;50.784;4.630;2023-05-23T06:45:53;15.90;99.90
26655;DHT22;14278;50.784;4.630;2023-05-23T06:48:18;16.20;99.90
26655;DHT22;14278;50.784;4.630;2023-05-23T06:50:44;15.90;99.90
26655;DHT22;14278;50.784;4.630;2023-05-23T06:53:11;15.80;99.90
26655;DHT22;14278;50.784;4.630;2023-05-23T06:55:37;15.80;99.90
26655;DHT22;14278;50.784;4.630;2023-05-23T06:58:02;15.80;99.90
26655;DHT22;14278;50.784;4.630;2023-05-23T07:00:29;15.80;99.90
26655;DHT22;14278;50.784;4.630;2023-05-23T07:02:56;16.20;99.90
26655;DHT22;14278;50.784;4.630;2023-05-23T07:05:26;16.30;99.90
26655;DHT22;14278;50.784;4.630;2023-05-23T07:07:52;16.40;99.90
26655;DHT22;14278;50.784;4.630;2023-05-23T07:10:18;16.30;99.90
26655;DHT22;14278;50.784;4.630;2023-05-23T07:12:45;16.00;99.90
26655;DHT22;14278;50.784;4.630;2023-05-23T07:15:11;16.10;99.90
26655;DHT22;14278;50.784;4.630;2023-05-23T07:17:38;16.10;99.90
26655;DHT22;14278;50.784;4.630;2023-05-23T07:20:04;16.20;99.90
26655;DHT22;14278;50.784;4.630;2023-05-23T07:22:30;16.20;99.90
26655;DHT22;14278;50.784;4.630;2023-05-23T07:24:56;16.20;99.90
26655;DHT22;14278;50.784;4.630;2023-05-23T07:27:22;16.40;99.90
26655;DHT22;14278;50.784;4.630;2023-05-23T07:29:48;16.70;99.90
26655;DHT22;14278;50.784;4.630;2023-05-23T07:32:14;17.60;99.90
26655;DHT22;14278;50.784;4.630;2023-05-23T07:34:40;18.20;99.90
26655;DHT22;14278;50.784;4.630;2023-05-23T07:37:05;18.50;99.90
26655;DHT22;14278;50.784;4.630;2023-05-23T07:39:31;18.30;99.90
26655;DHT22;14278;50.784;4.630;2023-05-23T07:41:57;18.60;99.90
26655;DHT22;14278;50.784;4.630;2023-05-23T07:44:23;19.10;99.90
26655;DHT22;14278;50.784;4.630;2023-05-23T07:46:49;18.80;99.90
26655;DHT22;14278;50.784;4.630;2023-05-23T07:49:15;18.90;99.90
26655;DHT22;14278;50.784;4.630;2023-05-23T07:51:40;18.50;99.90
26655;DHT22;14278;50.784;4.630;2023-05-23T07:54:07;18.70;99.90
26655;DHT22;14278;50.784;4.630;2023-05-23T07:56:32;19.10;99.90
26655;DHT22;14278;50.784;4.630;2023-05-23T07:58:58;19.00;99.90
26655;DHT22;14278;50.784;4.630;2023-05-23T08:01:24;18.80;99.90
26655;DHT22;14278;50.784;4.630;2023-05-23T08:03:50;18.80;99.90
26655;DHT22;14278;50.784;4.630;2023-05-23T08:06:16;18.30;99.90
26655;DHT22;14278;50.784;4.630;2023-05-23T08:08:42;18.20;99.90
26655;DHT22;14278;50.784;4.630;2023-05-23T08:11:08;17.90;99.90
26655;DHT22;14278;50.784;4.630;2023-05-23T08:13:34;17.80;99.90
26655;DHT22;14278;50.784;4.630;2023-05-23T08:16:00;18.40;99.90
26655;DHT22;14278;50.784;4.630;2023-05-23T08:18:26;18.40;99.90
26655;DHT22;14278;50.784;4.630;2023-05-23T08:20:53;17.60;99.90
26655;DHT22;14278;50.784;4.630;2023-05-23T08:23:18;18.20;99.90
26655;DHT22;14278;50.784;4.630;2023-05-23T08:25:44;18.50;99.90
26655;DHT22;14278;50.784;4.630;2023-05-23T08:28:10;18.60;99.90
26655;DHT22;14278;50.784;4.630;2023-05-23T08:30:36;18.90;99.90
26655;DHT22;14278;50.784;4.630;2023-05-23T08:33:02;19.20;99.90
26655;DHT22;14278;50.784;4.630;2023-05-23T08:35:31;19.10;99.90
26655;DHT22;14278;50.784;4.630;2023-05-23T08:38:02;18.60;99.90
26655;DHT22;14278;50.784;4.630;2023-05-23T08:40:30;18.60;99.90
26655;DHT22;14278;50.784;4.630;2023-05-23T08:42:57;18.50;99.90
26655;DHT22;14278;50.784;4.630;2023-05-23T08:45:23;19.10;99.90
26655;DHT22;14278;50.784;4.630;2023-05-23T08:47:50;19.40;99.90
26655;DHT22;14278;50.784;4.630;2023-05-23T08:50:17;19.00;99.90
26655;DHT22;14278;50.784;4.630;2023-05-23T08:52:54;19.20;99.90
26655;DHT22;14278;50.784;4.630;2023-05-23T08:55:24;19.40;99.90
26655;DHT22;14278;50.784;4.630;2023-05-23T08:57:54;19.70;99.90
26655;DHT22;14278;50.784;4.630;2023-05-23T09:00:21;20.30;99.90
26655;DHT22;14278;50.784;4.630;2023-05-23T09:02:49;20.30;99.90
26655;DHT22;14278;50.784;4.630;2023-05-23T09:05:16;20.50;99.90
26655;DHT22;14278;50.784;4.630;2023-05-23T09:07:43;20.70;99.90
26655;DHT22;14278;50.784;4.630;2023-05-23T09:10:11;20.90;99.90
26655;DHT22;14278;50.784;4.630;2023-05-23T09:12:37;21.30;99.90
26655;DHT22;14278;50.784;4.630;2023-05-23T09:15:06;22.10;99.90
26655;DHT22;14278;50.784;4.630;2023-05-23T09:17:34;23.30;99.90
26655;DHT22;14278;50.784;4.630;2023-05-23T09:20:01;24.20;99.90
26655;DHT22;14278;50.784;4.630;2023-05-23T09:22:29;22.80;99.90
26655;DHT22;14278;50.784;4.630;2023-05-23T09:24:55;22.80;99.90
26655;DHT22;14278;50.784;4.630;2023-05-23T09:27:21;21.70;99.90
26655;DHT22;14278;50.784;4.630;2023-05-23T09:29:48;21.80;99.90
26655;DHT22;14278;50.784;4.630;2023-05-23T09:32:16;21.40;99.90
26655;DHT22;14278;50.784;4.630;2023-05-23T09:34:58;20.60;99.90
26655;DHT22;14278;50.784;4.630;2023-05-23T09:37:44;20.30;99.90
26655;DHT22;14278;50.784;4.630;2023-05-23T09:40:13;20.10;99.90
26655;DHT22;14278;50.784;4.630;2023-05-23T09:42:44;19.30;99.90
26655;DHT22;14278;50.784;4.630;2023-05-23T09:45:11;19.80;99.90
26655;DHT22;14278;50.784;4.630;2023-05-23T09:47:36;19.60;99.90
26655;DHT22;14278;50.784;4.630;2023-05-23T09:50:03;19.30;99.90
26655;DHT22;14278;50.784;4.630;2023-05-23T09:52:38;18.90;99.90
26655;DHT22;14278;50.784;4.630;2023-05-23T09:55:05;18.90;99.90
26655;DHT22;14278;50.784;4.630;2023-05-23T09:57:34;19.40;99.90
26655;DHT22;14278;50.784;4.630;2023-05-23T10:00:02;19.70;99.90
26655;DHT22;14278;50.784;4.630;2023-05-23T10:05:11;19.80;99.90
26655;DHT22;14278;50.784;4.630;2023-05-23T10:07:43;20.00;99.90
26655;DHT22;14278;50.784;4.630;2023-05-23T10:10:11;19.80;99.90
26655;DHT22;14278;50.784;4.630;2023-05-23T10:12:48;19.60;99.90
26655;DHT22;14278;50.784;4.630;2023-05-23T10:15:17;19.30;99.90
26655;DHT22;14278;50.784;4.630;2023-05-23T10:18:00;19.40;99.90
26655;DHT22;14278;50.784;4.630;2023-05-23T10:20:29;19.00;99.90
26655;DHT22;14278;50.784;4.630;2023-05-23T10:23:00;18.70;99.90
26655;DHT22;14278;50.784;4.630;2023-05-23T10:25:28;19.10;99.90
26655;DHT22;14278;50.784;4.630;2023-05-23T10:27:58;19.10;99.90
26655;DHT22;14278;50.784;4.630;2023-05-23T10:30:27;19.20;99.90
26655;DHT22;14278;50.784;4.630;2023-05-23T10:32:58;19.60;99.90
26655;DHT22;14278;50.784;4.630;2023-05-23T10:35:55;19.60;99.90
26655;DHT22;14278;50.784;4.630;2023-05-23T10:41:05;19.60;99.90
26655;DHT22;14278;50.784;4.630;2023-05-23T10:46:54;19.70;99.90
26655;DHT22;14278;50.784;4.630;2023-05-23T10:49:39;19.40;99.90
26655;DHT22;14278;50.784;4.630;2023-05-23T10:52:07;19.40;99.90
26655;DHT22;14278;50.784;4.630;2023-05-23T10:54:44;19.50;99.90
26655;DHT22;14278;50.784;4.630;2023-05-23T10:57:14;19.50;99.90
26655;DHT22;14278;50.784;4.630;2023-05-23T10:59:41;19.30;99.90
26655;DHT22;14278;50.784;4.630;2023-05-23T11:02:15;18.80;99.90
26655;DHT22;14278;50.784;4.630;2023-05-23T11:04:41;19.30;99.90
26655;DHT22;14278;50.784;4.630;2023-05-23T11:07:30;20.40;99.90
26655;DHT22;14278;50.784;4.630;2023-05-23T11:10:12;21.30;99.90
26655;DHT22;14278;50.784;4.630;2023-05-23T11:12:43;21.50;99.90
26655;DHT22;14278;50.784;4.630;2023-05-23T11:15:19;22.00;99.90
26655;DHT22;14278;50.784;4.630;2023-05-23T11:17:53;21.40;99.90
26655;DHT22;14278;50.784;4.630;2023-05-23T11:20:23;20.60;99.90
26655;DHT22;14278;50.784;4.630;2023-05-23T11:22:59;21.50;99.90
26655;DHT22;14278;50.784;4.630;2023-05-23T11:25:48;21.90;99.90
26655;DHT22;14278;50.784;4.630;2023-05-23T11:28:15;21.80;99.90
26655;DHT22;14278;50.784;4.630;2023-05-23T11:30:42;22.80;99.90
26655;DHT22;14278;50.784;4.630;2023-05-23T11:33:12;23.60;99.90
26655;DHT22;14278;50.784;4.630;2023-05-23T11:35:48;24.50;99.90
26655;DHT22;14278;50.784;4.630;2023-05-23T11:38:16;24.90;99.90
26655;DHT22;14278;50.784;4.630;2023-05-23T11:40:44;23.50;99.90
26655;DHT22;14278;50.784;4.630;2023-05-23T11:43:15;22.70;99.90
26655;DHT22;14278;50.784;4.630;2023-05-23T11:45:42;22.80;99.90
26655;DHT22;14278;50.784;4.630;2023-05-23T11:48:12;22.80;99.90
26655;DHT22;14278;50.784;4.630;2023-05-23T11:50:49;23.40;99.90
26655;DHT22;14278;50.784;4.630;2023-05-23T11:53:16;22.90;99.90
26655;DHT22;14278;50.784;4.630;2023-05-23T11:55:53;22.50;99.90
26655;DHT22;14278;50.784;4.630;2023-05-23T11:58:27;21.80;99.90
26655;DHT22;14278;50.784;4.630;2023-05-23T12:01:00;21.60;99.90
26655;DHT22;14278;50.784;4.630;2023-05-23T12:03:27;21.80;99.90
26655;DHT22;14278;50.784;4.630;2023-05-23T12:05:57;22.30;99.90
26655;DHT22;14278;50.784;4.630;2023-05-23T12:08:24;21.90;99.90
26655;DHT22;14278;50.784;4.630;2023-05-23T12:10:56;22.00;99.90
26655;DHT22;14278;50.784;4.630;2023-05-23T12:13:24;22.50;99.90
26655;DHT22;14278;50.784;4.630;2023-05-23T12:16:03;21.80;99.90
26655;DHT22;14278;50.784;4.630;2023-05-23T12:18:31;22.10;99.90
26655;DHT22;14278;50.784;4.630;2023-05-23T12:21:01;21.30;99.90
26655;DHT22;14278;50.784;4.630;2023-05-23T12:23:28;21.60;99.90
26655;DHT22;14278;50.784;4.630;2023-05-23T12:25:55;21.90;99.90
26655;DHT22;14278;50.784;4.630;2023-05-23T12:28:37;22.10;99.90
26655;DHT22;14278;50.784;4.630;2023-05-23T12:31:15;22.20;99.90
26655;DHT22;14278;50.784;4.630;2023-05-23T12:33:42;22.00;99.90
26655;DHT22;14278;50.784;4.630;2023-05-23T12:36:13;21.30;99.90
26655;DHT22;14278;50.784;4.630;2023-05-23T12:38:40;21.50;99.90
26655;DHT22;14278;50.784;4.630;2023-05-23T12:43:39;22.40;99.90
26655;DHT22;14278;50.784;4.630;2023-05-23T12:46:06;22.00;99.90
26655;DHT22;14278;50.784;4.630;2023-05-23T12:48:32;21.70;99.90
26655;DHT22;14278;50.784;4.630;2023-05-23T12:50:59;21.10;99.90
26655;DHT22;14278;50.784;4.630;2023-05-23T12:53:26;21.30;99.90
26655;DHT22;14278;50.784;4.630;2023-05-23T12:55:52;21.30;99.90
26655;DHT22;14278;50.784;4.630;2023-05-23T12:58:18;21.40;99.90
26655;DHT22;14278;50.784;4.630;2023-05-23T13:00:44;21.70;99.90
26655;DHT22;14278;50.784;4.630;2023-05-23T13:03:10;21.80;99.90
26655;DHT22;14278;50.784;4.630;2023-05-23T13:05:37;21.80;99.90
26655;DHT22;14278;50.784;4.630;2023-05-23T13:08:02;21.70;99.90
26655;DHT22;14278;50.784;4.630;2023-05-23T13:10:28;21.60;99.90
26655;DHT22;14278;50.784;4.630;2023-05-23T13:12:54;21.70;99.90
26655;DHT22;14278;50.784;4.630;2023-05-23T13:15:20;21.50;99.90
26655;DHT22;14278;50.784;4.630;2023-05-23T13:17:46;21.70;99.90
26655;DHT22;14278;50.784;4.630;2023-05-23T13:20:12;21.20;99.90
26655;DHT22;14278;50.784;4.630;2023-05-23T13:22:39;21.10;99.90
26655;DHT22;14278;50.784;4.630;2023-05-23T13:25:06;20.70;99.90
26655;DHT22;14278;50.784;4.630;2023-05-23T13:27:33;19.40;99.90
26655;DHT22;14278;50.784;4.630;2023-05-23T13:29:59;19.80;99.90
26655;DHT22;14278;50.784;4.630;2023-05-23T13:32:25;20.10;99.90
26655;DHT22;14278;50.784;4.630;2023-05-23T13:34:51;20.30;99.90
26655;DHT22;14278;50.784;4.630;2023-05-23T13:37:17;20.80;99.90
26655;DHT22;14278;50.784;4.630;2023-05-23T13:39:44;20.90;99.90
26655;DHT22;14278;50.784;4.630;2023-05-23T13:42:10;21.20;99.90
26655;DHT22;14278;50.784;4.630;2023-05-23T13:44:36;21.30;99.90
26655;DHT22;14278;50.784;4.630;2023-05-23T13:47:12;21.50;99.90
26655;DHT22;14278;50.784;4.630;2023-05-23T13:49:39;21.00;99.90
26655;DHT22;14278;50.784;4.630;2023-05-23T13:52:05;20.70;99.90
26655;DHT22;14278;50.784;4.630;2023-05-23T13:54:31;20.50;99.90
26655;DHT22;14278;50.784;4.630;2023-05-23T13:56:58;20.80;99.90
26655;DHT22;14278;50.784;4.630;2023-05-23T13:59:28;20.10;99.90
26655;DHT22;14278;50.784;4.630;2023-05-23T14:01:54;20.40;99.90
26655;DHT22;14278;50.784;4.630;2023-05-23T14:04:20;20.50;99.90
26655;DHT22;14278;50.784;4.630;2023-05-23T14:06:46;20.80;99.90
26655;DHT22;14278;50.784;4.630;2023-05-23T14:09:12;20.80;99.90
26655;DHT22;14278;50.784;4.630;2023-05-23T14:11:38;21.30;99.90
26655;DHT22;14278;50.784;4.630;2023-05-23T14:14:04;21.50;99.90
26655;DHT22;14278;50.784;4.630;2023-05-23T14:16:31;21.90;99.90
26655;DHT22;14278;50.784;4.630;2023-05-23T14:18:57;22.20;99.90
26655;DHT22;14278;50.784;4.630;2023-05-23T14:21:22;21.20;99.90
26655;DHT22;14278;50.784;4.630;2023-05-23T14:23:49;21.10;99.90
26655;DHT22;14278;50.784;4.630;2023-05-23T14:26:15;21.10;99.90
26655;DHT22;14278;50.784;4.630;2023-05-23T14:28:41;21.40;99.90
26655;DHT22;14278;50.784;4.630;2023-05-23T14:31:07;21.70;99.90
26655;DHT22;14278;50.784;4.630;2023-05-23T14:33:33;21.80;99.90
26655;DHT22;14278;50.784;4.630;2023-05-23T14:35:59;21.60;99.90
26655;DHT22;14278;50.784;4.630;2023-05-23T14:38:25;21.80;99.90
26655;DHT22;14278;50.784;4.630;2023-05-23T14:40:52;21.50;99.90
26655;DHT22;14278;50.784;4.630;2023-05-23T14:43:19;21.70;99.90
26655;DHT22;14278;50.784;4.630;2023-05-23T14:45:45;21.90;99.90
26655;DHT22;14278;50.784;4.630;2023-05-23T14:48:11;21.30;99.90
26655;DHT22;14278;50.784;4.630;2023-05-23T14:50:37;21.30;99.90
26655;DHT22;14278;50.784;4.630;2023-05-23T14:53:03;21.20;99.90
26655;DHT22;14278;50.784;4.630;2023-05-23T14:55:29;20.70;99.90
26655;DHT22;14278;50.784;4.630;2023-05-23T14:57:55;20.30;99.90
26655;DHT22;14278;50.784;4.630;2023-05-23T15:00:22;20.50;99.90
26655;DHT22;14278;50.784;4.630;2023-05-23T15:02:48;20.60;99.90
26655;DHT22;14278;50.784;4.630;2023-05-23T15:05:15;20.80;99.90
26655;DHT22;14278;50.784;4.630;2023-05-23T15:07:42;20.80;99.90
26655;DHT22;14278;50.784;4.630;2023-05-23T15:10:08;20.50;99.90
26655;DHT22;14278;50.784;4.630;2023-05-23T15:12:35;20.10;99.90
26655;DHT22;14278;50.784;4.630;2023-05-23T15:15:00;20.10;99.90
26655;DHT22;14278;50.784;4.630;2023-05-23T15:17:32;19.90;99.90
26655;DHT22;14278;50.784;4.630;2023-05-23T15:19:58;19.90;99.90
26655;DHT22;14278;50.784;4.630;2023-05-23T15:22:24;19.90;99.90
26655;DHT22;14278;50.784;4.630;2023-05-23T15:24:50;19.60;99.90
26655;DHT22;14278;50.784;4.630;2023-05-23T15:27:16;20.00;99.90
26655;DHT22;14278;50.784;4.630;2023-05-23T15:29:44;20.00;99.90
26655;DHT22;14278;50.784;4.630;2023-05-23T15:32:10;19.90;99.90
26655;DHT22;14278;50.784;4.630;2023-05-23T15:34:36;20.20;99.90
26655;DHT22;14278;50.784;4.630;2023-05-23T15:37:02;20.00;99.90
26655;DHT22;14278;50.784;4.630;2023-05-23T15:39:28;20.30;99.90
26655;DHT22;14278;50.784;4.630;2023-05-23T15:41:54;20.10;99.90
26655;DHT22;14278;50.784;4.630;2023-05-23T15:44:20;20.20;99.90
26655;DHT22;14278;50.784;4.630;2023-05-23T15:46:47;20.10;99.90
26655;DHT22;14278;50.784;4.630;2023-05-23T15:49:13;19.90;99.90
26655;DHT22;14278;50.784;4.630;2023-05-23T15:51:39;19.80;99.90